createdAt,value
2019-05-01T00:00:25.942Z,1009.44
2019-05-01T00:01:35.906Z,1009.4
2019-05-01T00:02:45.871Z,1009.42
2019-05-01T00:03:55.813Z,1009.36
2019-05-01T00:05:05.774Z,1009.33
2019-05-01T00:06:15.724Z,1009.39
2019-05-01T00:07:25.667Z,1009.35
2019-05-01T00:08:35.125Z,1009.36
2019-05-01T00:09:45.081Z,1009.36
2019-05-01T00:10:54.774Z,1009.36
2019-05-01T00:12:04.473Z,1009.39
2019-05-01T00:13:14.184Z,1009.36
2019-05-01T00:14:23.883Z,1009.38
2019-05-01T00:15:33.575Z,1009.39
2019-05-01T00:16:43.293Z,1009.37
2019-05-01T00:17:53.247Z,1009.36
2019-05-01T00:19:03.212Z,1009.37
2019-05-01T00:20:13.212Z,1009.31
2019-05-01T00:21:23.171Z,1009.34
2019-05-01T00:22:32.624Z,1009.31
2019-05-01T00:23:42.324Z,1009.27
2019-05-01T00:24:52.273Z,1009.31
2019-05-01T00:26:02.006Z,1009.3
2019-05-01T00:27:11.985Z,1009.28
2019-05-01T00:28:21.664Z,1009.27
2019-05-01T00:29:31.609Z,1009.23
2019-05-01T00:30:41.545Z,1009.19
2019-05-01T00:31:51.244Z,1009.21
2019-05-01T00:33:00.952Z,1009.18
2019-05-01T00:34:10.911Z,1009.21
2019-05-01T00:35:20.852Z,1009.21
2019-05-01T00:36:30.553Z,1009.22
2019-05-01T00:37:40.006Z,1009.2
2019-05-01T00:38:49.954Z,1009.19
2019-05-01T00:39:59.651Z,1009.17
2019-05-01T00:41:09.345Z,1009.2
2019-05-01T00:42:19.042Z,1009.13
2019-05-01T00:43:29.001Z,1009.15
2019-05-01T00:44:38.949Z,1009.11
2019-05-01T00:45:48.907Z,1009.08
2019-05-01T00:46:58.651Z,1009.06
2019-05-01T00:48:08.659Z,1009.08
2019-05-01T00:49:18.352Z,1009.07
2019-05-01T00:50:28.317Z,1009.05
2019-05-01T00:51:38.265Z,1009.03
2019-05-01T00:52:48.214Z,1009.06
2019-05-01T00:53:58.170Z,1009.04
2019-05-01T00:55:08.135Z,1009.06
2019-05-01T00:56:18.100Z,1009.01
2019-05-01T00:57:28.090Z,1009.07
2019-05-01T00:58:37.821Z,1008.97
2019-05-01T00:59:47.517Z,1008.93
2019-05-01T01:00:57.251Z,1008.94
2019-05-01T01:02:06.694Z,1008.9
2019-05-01T01:03:16.383Z,1008.99
2019-05-01T01:04:25.841Z,1008.93
2019-05-01T01:05:35.542Z,1008.91
2019-05-01T01:06:45.241Z,1008.89
2019-05-01T01:07:55.203Z,1008.86
2019-05-01T01:09:05.163Z,1008.84
2019-05-01T01:10:14.907Z,1008.85
2019-05-01T01:11:24.850Z,1008.84
2019-05-01T01:12:34.864Z,1008.82
2019-05-01T01:13:44.571Z,1008.87
2019-05-01T01:14:54.262Z,1008.89
2019-05-01T01:16:04.229Z,1008.88
2019-05-01T01:17:14.185Z,1008.87
2019-05-01T01:18:23.915Z,1008.84
2019-05-01T01:19:33.876Z,1008.81
2019-05-01T01:20:43.835Z,1008.81
2019-05-01T01:21:53.282Z,1008.85
2019-05-01T01:23:03.255Z,1008.83
2019-05-01T01:24:12.952Z,1008.8
2019-05-01T01:25:22.902Z,1008.84
2019-05-01T01:26:32.605Z,1008.82
2019-05-01T01:27:42.303Z,1008.81
2019-05-01T01:28:52.256Z,1008.81
2019-05-01T01:30:01.958Z,1008.79
2019-05-01T01:31:11.934Z,1008.76
2019-05-01T01:32:22.113Z,1008.77
2019-05-01T01:33:31.815Z,1008.73
2019-05-01T01:34:41.518Z,1008.68
2019-05-01T01:35:50.964Z,1008.7
2019-05-01T01:37:00.664Z,1008.67
2019-05-01T01:38:10.616Z,1008.68
2019-05-01T01:39:20.578Z,1008.72
2019-05-01T01:40:30.544Z,1008.71
2019-05-01T01:41:40.511Z,1008.66
2019-05-01T01:42:50.454Z,1008.63
2019-05-01T01:44:00.404Z,1008.64
2019-05-01T01:45:10.352Z,1008.66
2019-05-01T01:46:20.291Z,1008.58
2019-05-01T01:47:29.738Z,1008.67
2019-05-01T01:48:39.687Z,1008.58
2019-05-01T01:49:49.204Z,1008.6
2019-05-01T01:50:59.145Z,1008.63
2019-05-01T01:52:08.587Z,1008.6
2019-05-01T01:53:18.542Z,1008.57
2019-05-01T01:54:28.252Z,1008.55
2019-05-01T01:55:37.947Z,1008.54
2019-05-01T01:56:47.893Z,1008.55
2019-05-01T01:57:57.597Z,1008.51
2019-05-01T01:59:07.288Z,1008.46
2019-05-01T02:00:17.241Z,1008.5
2019-05-01T02:01:27.213Z,1008.55
2019-05-01T02:02:37.174Z,1008.5
2019-05-01T02:03:46.628Z,1008.46
2019-05-01T02:04:56.575Z,1008.44
2019-05-01T02:06:06.516Z,1008.46
2019-05-01T02:07:16.211Z,1008.4
2019-05-01T02:08:25.902Z,1008.39
2019-05-01T02:09:35.345Z,1008.4
2019-05-01T02:10:45.308Z,1008.39
2019-05-01T02:11:55.269Z,1008.36
2019-05-01T02:13:04.726Z,1008.33
2019-05-01T02:14:14.682Z,1008.36
2019-05-01T02:15:24.373Z,1008.28
2019-05-01T02:16:34.316Z,1008.31
2019-05-01T02:17:43.771Z,1008.28
2019-05-01T02:18:53.710Z,1008.24
2019-05-01T02:20:03.161Z,1008.27
2019-05-01T02:21:12.612Z,1008.29
2019-05-01T02:22:21.817Z,1008.28
2019-05-01T02:23:31.773Z,1008.22
2019-05-01T02:24:41.486Z,1008.2
2019-05-01T02:25:50.955Z,1008.18
2019-05-01T02:27:00.664Z,1008.21
2019-05-01T02:28:10.365Z,1008.16
2019-05-01T02:29:20.313Z,1008.12
2019-05-01T02:30:30.008Z,1008.15
2019-05-01T02:31:39.731Z,1008.18
2019-05-01T02:32:49.696Z,1008.15
2019-05-01T02:33:59.408Z,1008.17
2019-05-01T02:35:09.202Z,1008.21
2019-05-01T02:36:18.911Z,1008.15
2019-05-01T02:37:28.632Z,1008.16
2019-05-01T02:38:38.592Z,1008.13
2019-05-01T02:39:48.295Z,1008.13
2019-05-01T02:40:58.285Z,1008.12
2019-05-01T02:42:08.304Z,1008.13
2019-05-01T02:43:18.509Z,1008.15
2019-05-01T02:44:28.218Z,1008.16
2019-05-01T02:45:37.926Z,1008.14
2019-05-01T02:46:47.898Z,1008.12
2019-05-01T02:47:57.862Z,1008.09
2019-05-01T02:49:07.656Z,1008.14
2019-05-01T02:50:17.618Z,1008.1
2019-05-01T02:51:27.338Z,1008.06
2019-05-01T02:52:37.052Z,1008.11
2019-05-01T02:53:47.021Z,1008.06
2019-05-01T02:54:56.721Z,1008.11
2019-05-01T02:56:06.688Z,1008.08
2019-05-01T02:57:16.632Z,1008.05
2019-05-01T02:58:26.622Z,1008.04
2019-05-01T02:59:36.593Z,1008.04
2019-05-01T03:00:46.552Z,1008.06
2019-05-01T03:01:56.262Z,1007.98
2019-05-01T03:03:06.238Z,1008
2019-05-01T03:04:16.213Z,1007.96
2019-05-01T03:05:26.174Z,1007.95
2019-05-01T03:06:35.658Z,1007.92
2019-05-01T03:07:45.615Z,1007.96
2019-05-01T03:08:55.596Z,1007.92
2019-05-01T03:10:09.130Z,1007.93
2019-05-01T03:11:19.462Z,1007.96
2019-05-01T03:12:29.427Z,1007.89
2019-05-01T03:13:39.121Z,1007.97
2019-05-01T03:14:48.854Z,1007.99
2019-05-01T03:15:58.323Z,1007.93
2019-05-01T03:17:08.027Z,1007.9
2019-05-01T03:18:17.982Z,1007.87
2019-05-01T03:19:27.949Z,1007.88
2019-05-01T03:20:37.913Z,1007.85
2019-05-01T03:21:47.876Z,1007.83
2019-05-01T03:22:57.610Z,1007.82
2019-05-01T03:24:07.561Z,1007.82
2019-05-01T03:25:17.525Z,1007.83
2019-05-01T03:26:27.588Z,1007.8
2019-05-01T03:27:37.543Z,1007.88
2019-05-01T03:28:47.487Z,1007.82
2019-05-01T03:29:56.962Z,1007.78
2019-05-01T03:31:06.989Z,1007.77
2019-05-01T03:32:19.354Z,1007.72
2019-05-01T03:33:29.266Z,1007.76
2019-05-01T03:34:38.745Z,1007.75
2019-05-01T03:35:54.801Z,1007.67
2019-05-01T03:37:04.321Z,1007.72
2019-05-01T03:38:14.289Z,1007.69
2019-05-01T03:39:24.256Z,1007.7
2019-05-01T03:40:34.250Z,1007.72
2019-05-01T03:41:43.963Z,1007.78
2019-05-01T03:42:53.757Z,1007.7
2019-05-01T03:44:03.722Z,1007.75
2019-05-01T03:45:13.703Z,1007.73
2019-05-01T03:46:23.660Z,1007.78
2019-05-01T03:47:33.618Z,1007.76
2019-05-01T03:48:43.583Z,1007.76
2019-05-01T03:49:53.039Z,1007.78
2019-05-01T03:51:03.005Z,1007.76
2019-05-01T03:52:12.750Z,1007.75
2019-05-01T03:53:22.716Z,1007.82
2019-05-01T03:54:31.918Z,1007.83
2019-05-01T03:55:41.883Z,1007.68
2019-05-01T03:56:51.859Z,1007.68
2019-05-01T03:58:01.819Z,1007.71
2019-05-01T03:59:11.535Z,1007.74
2019-05-01T04:00:21.486Z,1007.69
2019-05-01T04:01:31.445Z,1007.66
2019-05-01T04:02:40.915Z,1007.72
2019-05-01T04:03:50.614Z,1007.74
2019-05-01T04:05:00.645Z,1007.7
2019-05-01T04:06:10.709Z,1007.75
2019-05-01T04:07:20.162Z,1007.69
2019-05-01T04:08:29.885Z,1007.74
2019-05-01T04:09:39.828Z,1007.73
2019-05-01T04:10:49.797Z,1007.77
2019-05-01T04:11:59.757Z,1007.75
2019-05-01T04:13:09.471Z,1007.67
2019-05-01T04:14:19.424Z,1007.7
2019-05-01T04:15:29.135Z,1007.71
2019-05-01T04:16:38.841Z,1007.82
2019-05-01T04:17:48.826Z,1007.85
2019-05-01T04:18:58.799Z,1007.79
2019-05-01T04:20:08.757Z,1007.86
2019-05-01T04:21:18.792Z,1007.81
2019-05-01T04:22:28.767Z,1007.81
2019-05-01T04:23:38.722Z,1007.81
2019-05-01T04:24:48.470Z,1007.76
2019-05-01T04:25:58.469Z,1007.76
2019-05-01T04:27:08.442Z,1007.81
2019-05-01T04:28:18.395Z,1007.82
2019-05-01T04:29:28.356Z,1007.85
2019-05-01T04:30:38.144Z,1007.82
2019-05-01T04:31:47.866Z,1007.8
2019-05-01T04:32:57.851Z,1007.79
2019-05-01T04:34:07.812Z,1007.83
2019-05-01T04:35:17.760Z,1007.83
2019-05-01T04:36:27.743Z,1007.88
2019-05-01T04:37:37.465Z,1007.89
2019-05-01T04:38:46.935Z,1007.9
2019-05-01T04:39:56.651Z,1007.88
2019-05-01T04:41:06.356Z,1007.86
2019-05-01T04:42:16.052Z,1007.85
2019-05-01T04:43:25.783Z,1007.83
2019-05-01T04:44:35.771Z,1007.81
2019-05-01T04:45:45.752Z,1007.79
2019-05-01T04:46:55.453Z,1007.83
2019-05-01T04:48:05.158Z,1007.85
2019-05-01T04:49:17.877Z,1007.85
2019-05-01T04:50:27.868Z,1007.75
2019-05-01T04:51:37.858Z,1007.78
2019-05-01T04:52:47.581Z,1007.82
2019-05-01T04:53:57.515Z,1007.82
2019-05-01T04:55:07.220Z,1007.85
2019-05-01T04:56:17.167Z,1007.89
2019-05-01T04:57:27.171Z,1007.85
2019-05-01T04:58:37.137Z,1007.83
2019-05-01T04:59:46.591Z,1007.84
2019-05-01T05:00:56.534Z,1007.88
2019-05-01T05:02:06.479Z,1007.87
2019-05-01T05:03:16.451Z,1007.88
2019-05-01T05:04:26.145Z,1007.89
2019-05-01T05:05:35.585Z,1007.96
2019-05-01T05:06:45.291Z,1007.96
2019-05-01T05:07:55.231Z,1007.93
2019-05-01T05:09:05.705Z,1007.95
2019-05-01T05:10:15.404Z,1007.94
2019-05-01T05:11:25.089Z,1007.94
2019-05-01T05:12:34.781Z,1007.97
2019-05-01T05:13:46.776Z,1007.97
2019-05-01T05:14:56.276Z,1007.99
2019-05-01T05:16:06.229Z,1007.96
2019-05-01T05:17:16.207Z,1008.03
2019-05-01T05:18:26.152Z,1007.98
2019-05-01T05:19:35.341Z,1007.98
2019-05-01T05:20:45.287Z,1007.95
2019-05-01T05:21:55.253Z,1008
2019-05-01T05:23:05.198Z,1008.01
2019-05-01T05:24:14.886Z,1008.02
2019-05-01T05:25:24.345Z,1008.05
2019-05-01T05:26:34.057Z,1008.05
2019-05-01T05:27:44.007Z,1008.01
2019-05-01T05:28:53.701Z,1008.05
2019-05-01T05:30:03.671Z,1008.04
2019-05-01T05:31:13.368Z,1008.07
2019-05-01T05:32:22.809Z,1008.08
2019-05-01T05:33:32.280Z,1008.1
2019-05-01T05:34:41.750Z,1008.07
2019-05-01T05:35:51.473Z,1008.08
2019-05-01T05:37:01.434Z,1008.05
2019-05-01T05:38:11.373Z,1008.09
2019-05-01T05:39:21.079Z,1008.11
2019-05-01T05:40:30.773Z,1008.11
2019-05-01T05:41:40.233Z,1008.07
2019-05-01T05:42:50.182Z,1008.03
2019-05-01T05:44:00.143Z,1008.09
2019-05-01T05:45:09.836Z,1008.05
2019-05-01T05:46:19.797Z,1008.06
2019-05-01T05:47:29.234Z,1008.06
2019-05-01T05:48:38.945Z,1007.99
2019-05-01T05:49:48.889Z,1008.03
2019-05-01T05:50:58.841Z,1007.97
2019-05-01T05:52:08.873Z,1007.94
2019-05-01T05:53:18.569Z,1007.96
2019-05-01T05:54:28.525Z,1007.97
2019-05-01T05:55:38.554Z,1007.96
2019-05-01T05:56:48.019Z,1007.95
2019-05-01T05:57:57.467Z,1007.99
2019-05-01T05:59:07.168Z,1007.96
2019-05-01T06:00:16.607Z,1007.94
2019-05-01T06:01:26.291Z,1007.97
2019-05-01T06:02:36.011Z,1007.97
2019-05-01T06:03:45.975Z,1007.94
2019-05-01T06:04:55.693Z,1008.01
2019-05-01T06:06:05.669Z,1008.01
2019-05-01T06:07:15.384Z,1007.97
2019-05-01T06:08:25.336Z,1007.99
2019-05-01T06:09:35.058Z,1008.01
2019-05-01T06:10:49.173Z,1008
2019-05-01T06:12:04.802Z,1008.03
2019-05-01T06:13:17.804Z,1007.94
2019-05-01T06:14:31.326Z,1007.91
2019-05-01T06:15:42.736Z,1007.9
2019-05-01T06:16:54.439Z,1007.92
2019-05-01T06:18:05.844Z,1007.98
2019-05-01T06:19:16.291Z,1007.96
2019-05-01T06:20:27.600Z,1007.96
2019-05-01T06:21:40.170Z,1007.97
2019-05-01T06:22:49.870Z,1007.95
2019-05-01T06:24:06.273Z,1007.99
2019-05-01T06:25:22.250Z,1008.02
2019-05-01T06:26:37.200Z,1008.03
2019-05-01T06:27:49.198Z,1007.98
2019-05-01T06:29:00.618Z,1008.05
2019-05-01T06:30:11.226Z,1008.04
2019-05-01T06:31:23.414Z,1008.04
2019-05-01T06:32:34.764Z,1008.03
2019-05-01T06:33:48.545Z,1008
2019-05-01T06:35:02.967Z,1008.05
2019-05-01T06:36:13.360Z,1008.15
2019-05-01T06:37:26.884Z,1008.1
2019-05-01T06:38:37.782Z,1008.04
2019-05-01T06:39:49.698Z,1008
2019-05-01T06:40:59.967Z,1008.05
2019-05-01T06:42:14.406Z,1008.03
2019-05-01T06:43:25.189Z,1008.04
2019-05-01T06:44:38.729Z,1008
2019-05-01T06:45:52.666Z,1007.98
2019-05-01T06:47:05.079Z,1008.02
2019-05-01T06:48:17.751Z,1008.06
2019-05-01T06:49:29.558Z,1008.01
2019-05-01T06:50:41.453Z,1008.02
2019-05-01T06:51:53.684Z,1008.08
2019-05-01T06:53:06.342Z,1008.11
2019-05-01T06:54:17.730Z,1008.12
2019-05-01T06:55:28.901Z,1008.1
2019-05-01T06:56:38.704Z,1008.15
2019-05-01T06:57:48.657Z,1008.2
2019-05-01T06:58:58.623Z,1008.14
2019-05-01T07:00:09.391Z,1008.09
2019-05-01T07:01:23.721Z,1008.13
2019-05-01T07:02:34.821Z,1008.08
2019-05-01T07:03:45.723Z,1008.11
2019-05-01T07:05:16.303Z,1008.07
2019-05-01T07:06:30.883Z,1008.11
2019-05-01T07:07:43.179Z,1008.15
2019-05-01T07:08:58.754Z,1008.13
2019-05-01T07:10:30.876Z,1008.08
2019-05-01T07:11:52.567Z,1008.13
2019-05-01T07:13:04.779Z,1008.22
2019-05-01T07:14:16.063Z,1008.25
2019-05-01T07:15:28.341Z,1008.21
2019-05-01T07:16:39.290Z,1008.14
2019-05-01T07:17:49.307Z,1008.21
2019-05-01T07:19:05.709Z,1008.21
2019-05-01T07:20:16.657Z,1008.23
2019-05-01T07:21:32.371Z,1008.25
2019-05-01T07:22:44.070Z,1008.17
2019-05-01T07:23:54.107Z,1008.16
2019-05-01T07:25:05.161Z,1008.13
2019-05-01T07:26:14.814Z,1008.2
2019-05-01T07:27:25.495Z,1008.22
2019-05-01T07:28:36.183Z,1008.18
2019-05-01T07:29:46.640Z,1008.18
2019-05-01T07:30:56.677Z,1008.19
2019-05-01T07:32:08.208Z,1008.19
2019-05-01T07:33:20.383Z,1008.19
2019-05-01T07:34:29.596Z,1008.2
2019-05-01T07:35:39.553Z,1008.26
2019-05-01T07:36:50.091Z,1008.22
2019-05-01T07:38:02.179Z,1008.25
2019-05-01T07:39:14.588Z,1008.27
2019-05-01T07:40:28.855Z,1008.24
2019-05-01T07:41:39.080Z,1008.29
2019-05-01T07:42:49.430Z,1008.3
2019-05-01T07:43:59.569Z,1008.31
2019-05-01T07:45:09.764Z,1008.29
2019-05-01T07:46:19.771Z,1008.28
2019-05-01T07:47:30.408Z,1008.29
2019-05-01T07:48:41.395Z,1008.32
2019-05-01T07:49:52.607Z,1008.2
2019-05-01T07:51:06.813Z,1008.24
2019-05-01T07:52:18.624Z,1008.21
2019-05-01T07:53:29.459Z,1008.26
2019-05-01T07:54:42.345Z,1008.22
2019-05-01T07:55:54.817Z,1008.24
2019-05-01T07:57:04.897Z,1008.27
2019-05-01T07:58:16.165Z,1008.32
2019-05-01T07:59:27.378Z,1008.33
2019-05-01T08:00:41.437Z,1008.27
2019-05-01T08:01:54.342Z,1008.31
2019-05-01T08:03:07.116Z,1008.3
2019-05-01T08:04:18.386Z,1008.35
2019-05-01T08:05:45.378Z,1008.35
2019-05-01T08:06:57.369Z,1008.29
2019-05-01T08:08:09.546Z,1008.3
2019-05-01T08:09:19.581Z,1008.29
2019-05-01T08:10:30.874Z,1008.3
2019-05-01T08:11:44.001Z,1008.33
2019-05-01T08:12:55.265Z,1008.3
2019-05-01T08:14:11.881Z,1008.27
2019-05-01T08:15:27.201Z,1008.33
2019-05-01T08:16:42.385Z,1008.31
2019-05-01T08:17:53.118Z,1008.25
2019-05-01T08:19:04.343Z,1008.26
2019-05-01T08:20:16.786Z,1008.23
2019-05-01T08:21:27.562Z,1008.23
2019-05-01T08:22:38.890Z,1008.23
2019-05-01T08:23:48.954Z,1008.23
2019-05-01T08:25:00.005Z,1008.26
2019-05-01T08:26:10.275Z,1008.23
2019-05-01T08:27:21.349Z,1008.31
2019-05-01T08:28:31.925Z,1008.26
2019-05-01T08:29:43.708Z,1008.35
2019-05-01T08:30:54.059Z,1008.27
2019-05-01T08:32:04.649Z,1008.21
2019-05-01T08:33:15.999Z,1008.27
2019-05-01T08:34:26.586Z,1008.27
2019-05-01T08:35:49.153Z,1008.22
2019-05-01T08:36:59.123Z,1008.27
2019-05-01T08:38:11.795Z,1008.18
2019-05-01T08:39:21.228Z,1008.23
2019-05-01T08:40:31.185Z,1008.22
2019-05-01T08:41:42.557Z,1008.21
2019-05-01T08:42:52.030Z,1008.16
2019-05-01T08:44:01.986Z,1008.34
2019-05-01T08:45:11.667Z,1008.2
2019-05-01T08:46:21.361Z,1008.23
2019-05-01T08:47:32.059Z,1008.22
2019-05-01T08:48:41.753Z,1008.19
2019-05-01T08:49:51.728Z,1008.2
2019-05-01T08:51:01.682Z,1008.21
2019-05-01T08:52:13.844Z,1008.19
2019-05-01T08:53:23.935Z,1008.24
2019-05-01T08:54:34.814Z,1008.2
2019-05-01T08:55:46.643Z,1008.17
2019-05-01T08:56:57.950Z,1008.11
2019-05-01T08:58:13.865Z,1008.21
2019-05-01T08:59:25.760Z,1008.23
2019-05-01T09:00:37.793Z,1008.17
2019-05-01T09:01:50.534Z,1008.22
2019-05-01T09:03:18.514Z,1008.24
2019-05-01T09:04:30.300Z,1008.26
2019-05-01T09:05:40.670Z,1008.21
2019-05-01T09:06:58.116Z,1008.22
2019-05-01T09:08:08.067Z,1008.22
2019-05-01T09:09:18.013Z,1008.16
2019-05-01T09:10:27.715Z,1008.22
2019-05-01T09:11:37.659Z,1008.2
2019-05-01T09:12:48.371Z,1008.17
2019-05-01T09:14:00.166Z,1008.17
2019-05-01T09:15:12.503Z,1008.16
2019-05-01T09:16:23.323Z,1008.17
2019-05-01T09:17:36.342Z,1008.17
2019-05-01T09:18:46.039Z,1008.09
2019-05-01T09:19:55.723Z,1008.13
2019-05-01T09:21:05.685Z,1008.06
2019-05-01T09:22:15.647Z,1008.07
2019-05-01T09:23:25.359Z,1008.06
2019-05-01T09:24:37.336Z,1008.18
2019-05-01T09:25:46.779Z,1008.05
2019-05-01T09:26:56.744Z,1007.95
2019-05-01T09:28:06.482Z,1007.95
2019-05-01T09:29:17.812Z,1008.02
2019-05-01T09:30:28.772Z,1007.94
2019-05-01T09:31:38.551Z,1007.94
2019-05-01T09:32:54.063Z,1007.88
2019-05-01T09:34:04.182Z,1007.88
2019-05-01T09:35:22.307Z,1007.97
2019-05-01T09:36:32.055Z,1007.91
2019-05-01T09:37:42.018Z,1007.97
2019-05-01T09:38:51.966Z,1007.95
2019-05-01T09:40:03.991Z,1007.96
2019-05-01T09:41:16.893Z,1007.98
2019-05-01T09:42:38.365Z,1007.96
2019-05-01T09:43:48.081Z,1007.93
2019-05-01T09:44:58.026Z,1007.89
2019-05-01T09:46:07.498Z,1008.03
2019-05-01T09:47:17.466Z,1007.98
2019-05-01T09:48:27.413Z,1007.94
2019-05-01T09:49:37.353Z,1007.9
2019-05-01T09:50:49.336Z,1007.91
2019-05-01T09:52:01.136Z,1007.89
2019-05-01T09:53:10.602Z,1007.9
2019-05-01T09:54:19.814Z,1007.95
2019-05-01T09:55:29.517Z,1007.95
2019-05-01T09:56:39.243Z,1007.85
2019-05-01T09:57:49.232Z,1007.89
2019-05-01T09:58:58.684Z,1007.96
2019-05-01T10:00:08.628Z,1007.91
2019-05-01T10:01:18.070Z,1007.88
2019-05-01T10:02:42.075Z,1007.94
2019-05-01T10:03:56.428Z,1007.97
2019-05-01T10:05:08.278Z,1007.95
2019-05-01T10:06:31.162Z,1007.94
2019-05-01T10:07:41.140Z,1007.92
2019-05-01T10:08:50.580Z,1007.87
2019-05-01T10:10:00.534Z,1007.87
2019-05-01T10:11:10.496Z,1007.78
2019-05-01T10:12:20.221Z,1007.78
2019-05-01T10:13:29.685Z,1007.76
2019-05-01T10:14:39.432Z,1007.82
2019-05-01T10:15:49.387Z,1007.82
2019-05-01T10:16:59.094Z,1007.83
2019-05-01T10:18:08.550Z,1007.79
2019-05-01T10:19:18.499Z,1007.81
2019-05-01T10:20:28.460Z,1007.77
2019-05-01T10:21:38.178Z,1007.82
2019-05-01T10:22:47.878Z,1007.75
2019-05-01T10:23:57.580Z,1007.73
2019-05-01T10:25:08.459Z,1007.73
2019-05-01T10:26:23.908Z,1007.68
2019-05-01T10:27:35.593Z,1007.68
2019-05-01T10:28:49.936Z,1007.71
2019-05-01T10:30:01.416Z,1007.68
2019-05-01T10:31:13.163Z,1007.62
2019-05-01T10:32:23.198Z,1007.74
2019-05-01T10:33:33.832Z,1007.79
2019-05-01T10:34:44.598Z,1007.72
2019-05-01T10:35:57.301Z,1007.69
2019-05-01T10:37:07.258Z,1007.69
2019-05-01T10:38:16.955Z,1007.63
2019-05-01T10:39:26.653Z,1007.61
2019-05-01T10:40:37.904Z,1007.61
2019-05-01T10:41:47.969Z,1007.64
2019-05-01T10:42:57.927Z,1007.69
2019-05-01T10:44:07.649Z,1007.69
2019-05-01T10:45:17.603Z,1007.62
2019-05-01T10:46:27.313Z,1007.57
2019-05-01T10:47:37.289Z,1007.59
2019-05-01T10:48:47.258Z,1007.5
2019-05-01T10:50:00.106Z,1007.59
2019-05-01T10:51:09.804Z,1007.63
2019-05-01T10:52:19.553Z,1007.49
2019-05-01T10:53:29.509Z,1007.59
2019-05-01T10:54:39.465Z,1007.6
2019-05-01T10:55:51.768Z,1007.55
2019-05-01T10:57:03.267Z,1007.49
2019-05-01T10:58:17.918Z,1007.5
2019-05-01T10:59:28.801Z,1007.51
2019-05-01T11:00:38.759Z,1007.62
2019-05-01T11:01:48.736Z,1007.49
2019-05-01T11:02:58.742Z,1007.5
2019-05-01T11:04:08.207Z,1007.49
2019-05-01T11:05:18.154Z,1007.47
2019-05-01T11:06:28.105Z,1007.44
2019-05-01T11:07:37.617Z,1007.42
2019-05-01T11:08:47.326Z,1007.45
2019-05-01T11:09:57.043Z,1007.49
2019-05-01T11:11:07.003Z,1007.38
2019-05-01T11:12:16.961Z,1007.25
2019-05-01T11:13:26.656Z,1007.4
2019-05-01T11:14:36.611Z,1007.35
2019-05-01T11:15:46.566Z,1007.34
2019-05-01T11:16:56.279Z,1007.35
2019-05-01T11:18:05.974Z,1007.3
2019-05-01T11:19:15.921Z,1007.26
2019-05-01T11:20:25.630Z,1007.28
2019-05-01T11:21:35.366Z,1007.19
2019-05-01T11:22:45.334Z,1007.2
2019-05-01T11:23:55.283Z,1007.21
2019-05-01T11:25:05.268Z,1007.17
2019-05-01T11:26:14.967Z,1007.2
2019-05-01T11:27:24.939Z,1007.21
2019-05-01T11:28:34.886Z,1007.21
2019-05-01T11:29:44.607Z,1007.27
2019-05-01T11:30:54.150Z,1007.17
2019-05-01T11:32:04.131Z,1007.21
2019-05-01T11:33:14.091Z,1007.28
2019-05-01T11:34:26.814Z,1007.23
2019-05-01T11:35:36.514Z,1007.15
2019-05-01T11:36:46.029Z,1007.13
2019-05-01T11:37:55.992Z,1007.16
2019-05-01T11:39:05.951Z,1007.2
2019-05-01T11:40:15.909Z,1007.16
2019-05-01T11:41:25.878Z,1007.17
2019-05-01T11:42:35.844Z,1007.12
2019-05-01T11:43:45.559Z,1007.18
2019-05-01T11:44:55.539Z,1007.21
2019-05-01T11:46:05.499Z,1007.1
2019-05-01T11:47:15.204Z,1007.1
2019-05-01T11:48:24.939Z,1007.1
2019-05-01T11:49:38.164Z,1007
2019-05-01T11:50:47.882Z,1007.04
2019-05-01T11:51:57.591Z,1006.96
2019-05-01T11:53:07.561Z,1007.03
2019-05-01T11:54:17.293Z,1007.04
2019-05-01T11:55:27.249Z,1006.97
2019-05-01T11:56:37.219Z,1007.01
2019-05-01T11:57:47.374Z,1007.02
2019-05-01T11:58:56.587Z,1006.98
2019-05-01T12:00:06.547Z,1007
2019-05-01T12:01:16.543Z,1006.93
2019-05-01T12:02:26.507Z,1006.84
2019-05-01T12:03:36.232Z,1006.85
2019-05-01T12:04:45.687Z,1006.89
2019-05-01T12:05:55.658Z,1006.9
2019-05-01T12:07:05.370Z,1006.84
2019-05-01T12:08:15.085Z,1006.85
2019-05-01T12:09:24.806Z,1006.83
2019-05-01T12:10:34.765Z,1006.94
2019-05-01T12:11:44.225Z,1006.98
2019-05-01T12:12:54.174Z,1006.89
2019-05-01T12:14:03.635Z,1006.82
2019-05-01T12:15:13.345Z,1006.83
2019-05-01T12:16:23.305Z,1006.88
2019-05-01T12:17:33.023Z,1006.9
2019-05-01T12:18:44.337Z,1006.87
2019-05-01T12:19:54.317Z,1006.82
2019-05-01T12:21:04.309Z,1006.81
2019-05-01T12:22:14.018Z,1006.84
2019-05-01T12:23:23.723Z,1006.8
2019-05-01T12:24:33.426Z,1006.79
2019-05-01T12:25:43.150Z,1006.82
2019-05-01T12:26:53.111Z,1006.75
2019-05-01T12:28:02.882Z,1006.8
2019-05-01T12:29:12.332Z,1006.77
2019-05-01T12:30:22.285Z,1006.79
2019-05-01T12:31:32.264Z,1006.78
2019-05-01T12:32:42.004Z,1006.66
2019-05-01T12:33:51.779Z,1006.73
2019-05-01T12:35:01.494Z,1006.69
2019-05-01T12:36:11.452Z,1006.56
2019-05-01T12:37:21.419Z,1006.65
2019-05-01T12:38:31.161Z,1006.65
2019-05-01T12:39:40.618Z,1006.68
2019-05-01T12:40:50.324Z,1006.68
2019-05-01T12:42:00.057Z,1006.66
2019-05-01T12:43:12.263Z,1006.56
2019-05-01T12:44:22.357Z,1006.62
2019-05-01T12:45:32.320Z,1006.65
2019-05-01T12:46:42.287Z,1006.68
2019-05-01T12:47:52.250Z,1006.6
2019-05-01T12:49:02.235Z,1006.63
2019-05-01T12:50:11.950Z,1006.59
2019-05-01T12:51:21.928Z,1006.52
2019-05-01T12:52:31.650Z,1006.5
2019-05-01T12:53:41.363Z,1006.48
2019-05-01T12:54:52.010Z,1006.56
2019-05-01T12:56:02.104Z,1006.54
2019-05-01T12:57:11.817Z,1006.52
2019-05-01T12:58:21.771Z,1006.68
2019-05-01T12:59:31.746Z,1006.53
2019-05-01T13:00:40.946Z,1006.44
2019-05-01T13:01:50.672Z,1006.49
2019-05-01T13:03:00.706Z,1006.48
2019-05-01T13:04:10.410Z,1006.48
2019-05-01T13:05:20.365Z,1006.65
2019-05-01T13:06:30.075Z,1006.51
2019-05-01T13:07:52.484Z,1006.39
2019-05-01T13:09:02.065Z,1006.47
2019-05-01T13:10:12.034Z,1006.32
2019-05-01T13:11:21.745Z,1006.31
2019-05-01T13:12:31.700Z,1006.4
2019-05-01T13:13:41.669Z,1006.36
2019-05-01T13:14:51.373Z,1006.47
2019-05-01T13:16:01.332Z,1006.38
2019-05-01T13:17:11.353Z,1006.36
2019-05-01T13:18:21.312Z,1006.32
2019-05-01T13:19:31.275Z,1006.42
2019-05-01T13:20:41.241Z,1006.45
2019-05-01T13:21:51.205Z,1006.34
2019-05-01T13:23:01.172Z,1006.38
2019-05-01T13:24:11.152Z,1006.33
2019-05-01T13:25:21.146Z,1006.43
2019-05-01T13:26:31.118Z,1006.4
2019-05-01T13:27:40.820Z,1006.34
2019-05-01T13:28:50.783Z,1006.29
2019-05-01T13:30:00.754Z,1006.37
2019-05-01T13:31:10.710Z,1006.32
2019-05-01T13:32:20.436Z,1006.3
2019-05-01T13:33:30.150Z,1006.25
2019-05-01T13:34:40.132Z,1006.23
2019-05-01T13:35:49.849Z,1006.18
2019-05-01T13:37:02.986Z,1006.26
2019-05-01T13:38:13.403Z,1006.22
2019-05-01T13:39:23.166Z,1006.22
2019-05-01T13:40:32.868Z,1006.25
2019-05-01T13:41:42.330Z,1006.1
2019-05-01T13:42:52.295Z,1006.15
2019-05-01T13:44:02.249Z,1006.12
2019-05-01T13:45:11.965Z,1006.1
2019-05-01T13:46:21.663Z,1006.08
2019-05-01T13:47:31.628Z,1006.05
2019-05-01T13:48:41.611Z,1006.07
2019-05-01T13:49:51.340Z,1006.06
2019-05-01T13:51:01.058Z,1005.96
2019-05-01T13:52:11.052Z,1006.1
2019-05-01T13:53:21.000Z,1006.05
2019-05-01T13:54:30.713Z,1006.04
2019-05-01T13:55:40.456Z,1006.07
2019-05-01T13:56:50.418Z,1006.05
2019-05-01T13:57:59.863Z,1006.07
2019-05-01T13:59:09.570Z,1006.09
2019-05-01T14:00:19.539Z,1006.15
2019-05-01T14:01:29.250Z,1006.1
2019-05-01T14:02:39.228Z,1006.18
2019-05-01T14:03:48.958Z,1006.11
2019-05-01T14:04:58.679Z,1006.08
2019-05-01T14:06:08.146Z,1006.15
2019-05-01T14:07:18.107Z,1005.97
2019-05-01T14:08:27.837Z,1005.97
2019-05-01T14:09:37.287Z,1005.96
2019-05-01T14:10:47.262Z,1006.02
2019-05-01T14:11:57.237Z,1005.95
2019-05-01T14:13:06.967Z,1006.06
2019-05-01T14:14:16.924Z,1006.01
2019-05-01T14:15:26.922Z,1005.89
2019-05-01T14:16:36.634Z,1005.98